createdAt,value
2023-04-18T00:01:55.734Z,16.51
2023-04-18T00:04:23.760Z,16.52
2023-04-18T00:06:51.978Z,16.50
2023-04-18T00:09:19.894Z,16.50
2023-04-18T00:11:47.863Z,16.49
2023-04-18T00:14:17.151Z,16.47
2023-04-18T00:16:45.965Z,16.43
2023-04-18T00:19:14.350Z,16.41
2023-04-18T00:21:44.721Z,16.36
2023-04-18T00:24:13.005Z,16.35
2023-04-18T00:26:41.166Z,16.25
2023-04-18T00:29:09.050Z,16.28
2023-04-18T00:31:38.449Z,16.24
2023-04-18T00:34:06.294Z,16.20
2023-04-18T00:36:34.180Z,16.14
2023-04-18T00:39:02.100Z,16.10
2023-04-18T00:41:30.031Z,16.05
2023-04-18T00:43:57.944Z,16.00
2023-04-18T00:46:25.832Z,15.94
2023-04-18T00:48:55.096Z,15.89
2023-04-18T00:51:22.954Z,15.83
2023-04-18T00:53:50.804Z,15.80
2023-04-18T00:56:18.766Z,15.77
2023-04-18T00:58:46.632Z,15.73
2023-04-18T01:01:14.522Z,15.71
2023-04-18T01:03:42.597Z,15.65
2023-04-18T01:06:12.121Z,15.61
2023-04-18T01:08:39.984Z,15.57
2023-04-18T01:11:07.860Z,15.52
2023-04-18T01:13:35.730Z,15.48
2023-04-18T01:16:03.655Z,15.40
2023-04-18T01:18:31.627Z,15.38
2023-04-18T01:21:00.575Z,15.32
2023-04-18T01:23:30.592Z,15.29
2023-04-18T01:25:59.928Z,15.26
2023-04-18T01:28:27.904Z,15.22
2023-04-18T01:30:55.890Z,15.21
2023-04-18T01:33:23.777Z,15.20
2023-04-18T01:35:51.644Z,15.17
2023-04-18T01:38:19.512Z,15.18
2023-04-18T01:40:47.554Z,15.13
2023-04-18T01:43:16.841Z,15.08
2023-04-18T01:45:44.771Z,15.03
2023-04-18T01:48:12.696Z,15.02
2023-04-18T01:50:40.663Z,15.00
2023-04-18T01:53:08.553Z,14.98
2023-04-18T01:55:36.458Z,14.95
2023-04-18T01:58:04.415Z,14.74
2023-04-18T02:00:33.764Z,14.88
2023-04-18T02:03:01.894Z,14.87
2023-04-18T02:05:30.072Z,14.83
2023-04-18T02:07:57.941Z,14.84
2023-04-18T02:10:26.011Z,14.83
2023-04-18T02:12:54.000Z,14.78
2023-04-18T02:15:22.256Z,14.79
2023-04-18T02:17:51.610Z,14.77
2023-04-18T02:20:19.495Z,14.73
2023-04-18T02:22:47.901Z,14.78
2023-04-18T02:25:15.758Z,14.77
2023-04-18T02:27:43.645Z,14.78
2023-04-18T02:30:12.159Z,14.77
2023-04-18T02:32:40.135Z,14.75
2023-04-18T02:35:09.956Z,14.71
2023-04-18T02:37:37.846Z,14.68
2023-04-18T02:40:07.273Z,14.64
2023-04-18T02:42:35.188Z,14.58
2023-04-18T02:45:03.084Z,14.55
2023-04-18T02:47:35.392Z,14.51
2023-04-18T02:50:13.217Z,14.47
2023-04-18T02:52:41.106Z,14.39
2023-04-18T02:55:09.674Z,14.38
2023-04-18T02:57:37.536Z,14.31
2023-04-18T03:00:07.203Z,14.25
2023-04-18T03:02:35.270Z,14.21
2023-04-18T03:05:03.426Z,14.20
2023-04-18T03:07:32.777Z,14.17
2023-04-18T03:10:00.970Z,14.13
2023-04-18T03:12:28.794Z,14.11
2023-04-18T03:14:56.679Z,14.07
2023-04-18T03:17:24.573Z,14.03
2023-04-18T03:19:52.476Z,13.97
2023-04-18T03:22:20.419Z,13.95
2023-04-18T03:24:49.652Z,13.89
2023-04-18T03:27:17.605Z,13.83
2023-04-18T03:29:45.552Z,13.76
2023-04-18T03:32:13.427Z,13.76
2023-04-18T03:34:41.345Z,13.75
2023-04-18T03:37:09.276Z,13.74
2023-04-18T03:39:37.144Z,13.68
2023-04-18T03:42:06.518Z,13.65
2023-04-18T03:44:34.439Z,13.63
2023-04-18T03:47:02.396Z,13.58
2023-04-18T03:49:30.256Z,13.56
2023-04-18T03:51:58.144Z,13.50
2023-04-18T03:54:26.011Z,13.43
2023-04-18T03:56:53.869Z,13.36
2023-04-18T03:59:23.133Z,13.29
2023-04-18T04:01:51.045Z,13.24
2023-04-18T04:04:19.195Z,13.21
2023-04-18T04:06:47.319Z,13.14
2023-04-18T04:09:15.210Z,13.11
2023-04-18T04:11:43.420Z,13.08
2023-04-18T04:14:11.382Z,13.05
2023-04-18T04:16:40.694Z,13.02
2023-04-18T04:19:08.666Z,12.98
2023-04-18T04:21:36.591Z,12.99
2023-04-18T04:24:04.785Z,13.03
2023-04-18T04:26:32.638Z,13.03
2023-04-18T04:29:00.495Z,12.93
2023-04-18T04:31:28.807Z,12.94
2023-04-18T04:33:58.061Z,12.88
2023-04-18T04:36:27.279Z,12.83
2023-04-18T04:38:55.207Z,12.81
2023-04-18T04:41:24.629Z,12.78
2023-04-18T04:43:53.170Z,12.78
2023-04-18T04:46:21.201Z,12.75
2023-04-18T04:48:49.754Z,12.75
2023-04-18T04:51:18.986Z,12.72
2023-04-18T04:53:46.893Z,12.77
2023-04-18T04:56:14.790Z,12.75
2023-04-18T04:58:42.698Z,12.74
2023-04-18T05:01:11.588Z,12.73
2023-04-18T05:03:39.629Z,12.73
2023-04-18T05:06:07.797Z,12.70
2023-04-18T05:08:37.032Z,12.65
2023-04-18T05:11:04.981Z,12.64
2023-04-18T05:13:32.889Z,12.62
2023-04-18T05:16:00.745Z,12.57
2023-04-18T05:18:28.626Z,12.59
2023-04-18T05:20:56.961Z,12.48
2023-04-18T05:23:24.960Z,12.42
2023-04-18T05:25:54.212Z,12.38
2023-04-18T05:28:22.828Z,12.32
2023-04-18T05:30:51.097Z,12.25
2023-04-18T05:33:19.096Z,12.19
2023-04-18T05:35:47.077Z,12.15
2023-04-18T05:38:15.001Z,12.11
2023-04-18T05:40:43.575Z,12.08
2023-04-18T05:43:12.950Z,12.05
2023-04-18T05:45:40.855Z,12.01
2023-04-18T05:48:08.793Z,12.03
2023-04-18T05:50:36.710Z,12.06
2023-04-18T05:53:04.578Z,12.10
2023-04-18T05:55:32.558Z,12.15
2023-04-18T05:58:00.485Z,12.15
2023-04-18T06:00:29.827Z,12.26
2023-04-18T06:02:57.860Z,12.33
2023-04-18T06:05:26.231Z,12.42
2023-04-18T06:07:54.293Z,12.48
2023-04-18T06:10:22.264Z,12.58
2023-04-18T06:12:50.121Z,12.63
2023-04-18T06:15:18.087Z,12.70
2023-04-18T06:17:47.425Z,12.80
2023-04-18T06:20:15.488Z,12.84
2023-04-18T06:22:43.478Z,12.91
2023-04-18T06:25:11.469Z,12.99
2023-04-18T06:27:39.524Z,13.07
2023-04-18T06:30:08.298Z,13.14
2023-04-18T06:32:36.522Z,13.19
2023-04-18T06:35:06.716Z,13.23
2023-04-18T06:37:34.574Z,13.33
2023-04-18T06:40:02.606Z,13.34
2023-04-18T06:42:30.453Z,13.45
2023-04-18T06:44:58.377Z,13.52
2023-04-18T06:47:26.626Z,13.56
2023-04-18T06:49:54.613Z,13.60
2023-04-18T06:52:23.965Z,13.63
2023-04-18T06:54:52.157Z,13.70
2023-04-18T06:57:20.036Z,13.72
2023-04-18T06:59:49.070Z,13.74
2023-04-18T07:02:16.998Z,13.84
2023-04-18T07:04:45.031Z,13.83
2023-04-18T07:07:13.155Z,13.87
2023-04-18T07:09:42.446Z,13.98
2023-04-18T07:12:10.649Z,14.04
2023-04-18T07:14:39.577Z,14.10
2023-04-18T07:17:07.624Z,14.18
2023-04-18T07:19:35.602Z,14.25
2023-04-18T07:22:03.493Z,14.28
2023-04-18T07:24:31.545Z,14.32
2023-04-18T07:27:01.520Z,14.36
2023-04-18T07:29:29.451Z,14.42
2023-04-18T07:31:58.038Z,14.51
2023-04-18T07:34:26.798Z,14.54
2023-04-18T07:36:55.876Z,14.42
2023-04-18T07:39:23.816Z,14.71
2023-04-18T07:41:51.856Z,14.73
2023-04-18T07:44:22.005Z,14.77
2023-04-18T07:46:50.549Z,14.73
2023-04-18T07:49:18.844Z,14.80
2023-04-18T07:51:46.958Z,14.91
2023-04-18T07:54:15.423Z,14.96
2023-04-18T07:56:43.348Z,14.99
2023-04-18T07:59:11.445Z,14.98
2023-04-18T08:01:40.983Z,15.16
2023-04-18T08:04:08.988Z,15.23
2023-04-18T08:06:37.273Z,15.28
2023-04-18T08:09:06.066Z,15.39
2023-04-18T08:11:34.123Z,15.45
2023-04-18T08:14:02.044Z,15.48
2023-04-18T08:16:29.998Z,15.51
2023-04-18T08:18:59.288Z,15.50
2023-04-18T08:21:27.470Z,15.62
2023-04-18T08:23:55.655Z,15.61
2023-04-18T08:26:23.610Z,15.70
2023-04-18T08:28:51.749Z,15.68
2023-04-18T08:33:47.948Z,15.69
2023-04-18T08:36:17.310Z,15.63
2023-04-18T08:38:45.188Z,15.72
2023-04-18T08:41:13.174Z,15.77
2023-04-18T08:43:41.215Z,15.85
2023-04-18T08:46:09.203Z,15.97
2023-04-18T08:48:37.202Z,16.02
2023-04-18T08:51:05.609Z,16.08
2023-04-18T08:53:35.267Z,16.12
2023-04-18T08:56:05.658Z,16.07
2023-04-18T08:58:34.982Z,16.02
2023-04-18T09:01:03.096Z,15.98
2023-04-18T09:03:39.697Z,15.90
2023-04-18T09:06:09.450Z,15.82
2023-04-18T09:08:39.225Z,15.82
2023-04-18T09:11:23.979Z,15.81
2023-04-18T09:13:51.976Z,15.79
2023-04-18T09:16:20.802Z,15.76
2023-04-18T09:19:12.336Z,15.77
2023-04-18T09:21:40.899Z,15.74
2023-04-18T09:24:21.117Z,15.88
2023-04-18T09:26:50.822Z,15.91
2023-04-18T09:29:22.418Z,15.88
2023-04-18T09:31:57.691Z,15.85
2023-04-18T09:34:26.329Z,15.95
2023-04-18T09:37:08.171Z,15.97
2023-04-18T09:39:38.506Z,16.10
2023-04-18T09:42:07.146Z,16.15
2023-04-18T09:44:35.059Z,16.38
2023-04-18T09:47:03.120Z,16.46
2023-04-18T09:49:31.040Z,16.57
2023-04-18T09:51:59.046Z,16.62
2023-04-18T09:54:27.400Z,16.67
2023-04-18T09:56:57.075Z,16.76
2023-04-18T09:59:36.564Z,16.86
2023-04-18T10:02:04.880Z,16.96
2023-04-18T10:04:35.744Z,17.05
2023-04-18T10:07:04.005Z,17.17
2023-04-18T10:09:33.395Z,17.30
2023-04-18T10:12:03.486Z,17.32
2023-04-18T10:14:32.514Z,17.38
2023-04-18T10:17:01.100Z,17.44
2023-04-18T10:19:30.185Z,17.53
2023-04-18T10:21:59.153Z,17.52
2023-04-18T10:24:48.507Z,17.60
2023-04-18T10:27:18.535Z,17.70
2023-04-18T10:29:50.729Z,17.76
2023-04-18T10:32:19.130Z,17.75
2023-04-18T10:34:47.814Z,17.97
2023-04-18T10:37:17.759Z,17.96
2023-04-18T10:39:50.665Z,18.05
2023-04-18T10:42:20.039Z,18.17
2023-04-18T10:45:18.494Z,18.23
2023-04-18T10:47:46.448Z,18.28
2023-04-18T10:50:14.844Z,18.37
2023-04-18T10:52:45.713Z,18.49
2023-04-18T10:55:20.633Z,18.52
2023-04-18T10:57:50.703Z,18.49
2023-04-18T11:00:21.794Z,18.53
2023-04-18T11:02:52.227Z,18.54
2023-04-18T11:05:21.839Z,18.76
2023-04-18T11:07:50.312Z,18.82
2023-04-18T11:10:19.009Z,19.02
2023-04-18T11:12:46.982Z,19.19
2023-04-18T11:15:17.769Z,19.38
2023-04-18T11:17:45.795Z,19.64
2023-04-18T11:20:14.956Z,19.70
2023-04-18T11:22:47.606Z,19.41
2023-04-18T11:25:15.761Z,19.30
2023-04-18T11:27:45.116Z,19.61
2023-04-18T11:30:13.850Z,20.04
2023-04-18T11:32:47.618Z,20.49
2023-04-18T11:35:17.733Z,20.99
2023-04-18T11:37:45.997Z,21.40
2023-04-18T11:40:14.615Z,21.70
2023-04-18T11:42:42.550Z,22.05
2023-04-18T11:45:12.443Z,22.32
2023-04-18T11:47:41.946Z,22.45
2023-04-18T11:50:12.764Z,22.53
2023-04-18T11:52:42.947Z,22.72
2023-04-18T11:55:17.893Z,22.89
2023-04-18T11:57:56.303Z,23.08
2023-04-18T12:00:33.667Z,23.21
2023-04-18T12:03:02.996Z,23.28
2023-04-18T12:05:33.103Z,23.39
2023-04-18T12:08:11.502Z,23.64
2023-04-18T12:10:39.778Z,23.75
2023-04-18T12:13:09.253Z,23.86
2023-04-18T12:15:39.421Z,23.96
2023-04-18T12:18:09.773Z,24.07
2023-04-18T12:20:46.007Z,24.25
2023-04-18T12:23:35.576Z,24.38
2023-04-18T12:26:04.351Z,24.41
2023-04-18T12:28:32.226Z,24.52
2023-04-18T12:31:00.915Z,24.59
2023-04-18T12:33:28.978Z,24.60
2023-04-18T12:35:58.215Z,24.63
2023-04-18T12:38:27.076Z,24.71
2023-04-18T12:40:54.994Z,24.66
2023-04-18T12:43:23.076Z,24.77
2023-04-18T12:45:51.109Z,24.86
2023-04-18T12:48:19.326Z,24.94
2023-04-18T12:50:47.282Z,24.98
2023-04-18T12:53:16.782Z,24.90
2023-04-18T12:55:44.759Z,25.01
2023-04-18T12:58:15.178Z,25.18
2023-04-18T13:00:43.151Z,25.33
2023-04-18T13:03:13.173Z,25.45
2023-04-18T13:05:41.573Z,25.47
2023-04-18T13:08:16.751Z,25.51
2023-04-18T13:10:47.678Z,25.50
2023-04-18T13:13:15.789Z,25.43
2023-04-18T13:15:43.831Z,25.17
2023-04-18T13:18:11.724Z,25.16
2023-04-18T13:20:39.635Z,25.13
2023-04-18T13:23:07.582Z,25.18
2023-04-18T13:25:35.576Z,25.36
2023-04-18T13:28:05.853Z,25.52
2023-04-18T13:30:38.453Z,25.48
2023-04-18T13:33:06.937Z,25.52
2023-04-18T13:35:35.381Z,25.52
2023-04-18T13:38:04.166Z,25.38
2023-04-18T13:40:33.496Z,25.51
2023-04-18T13:43:04.211Z,25.57
2023-04-18T13:45:34.013Z,25.61
2023-04-18T13:48:06.189Z,25.73
2023-04-18T13:50:37.344Z,25.92
2023-04-18T13:53:08.071Z,25.88
2023-04-18T13:55:37.108Z,25.85
2023-04-18T13:58:05.049Z,25.91
2023-04-18T14:00:34.418Z,25.81
2023-04-18T14:03:02.591Z,25.73
2023-04-18T14:05:31.098Z,25.78
2023-04-18T14:08:04.132Z,26.02
2023-04-18T14:10:32.411Z,26.28
2023-04-18T14:13:00.749Z,26.39
2023-04-18T14:15:30.795Z,26.44
2023-04-18T14:18:01.078Z,26.37
2023-04-18T14:20:34.296Z,26.24
2023-04-18T14:23:02.375Z,26.21
2023-04-18T14:25:30.590Z,26.54
2023-04-18T14:28:05.722Z,26.66
2023-04-18T14:30:33.760Z,26.66
2023-04-18T14:33:03.749Z,26.68
2023-04-18T14:35:31.783Z,26.76
2023-04-18T14:37:59.772Z,26.96
2023-04-18T14:40:27.856Z,26.97
2023-04-18T14:42:57.872Z,26.95
2023-04-18T14:45:26.177Z,26.96
2023-04-18T14:47:55.694Z,26.97
2023-04-18T14:50:25.506Z,27.06
2023-04-18T14:52:53.435Z,27.04
2023-04-18T14:55:21.342Z,27.14
2023-04-18T14:57:49.419Z,27.23
2023-04-18T15:00:18.548Z,27.13
2023-04-18T15:02:46.634Z,27.01
2023-04-18T15:05:15.261Z,26.89
2023-04-18T15:07:45.178Z,26.82
2023-04-18T15:10:15.258Z,26.86
2023-04-18T15:12:43.444Z,26.85
2023-04-18T15:15:12.251Z,26.90
2023-04-18T15:17:40.530Z,26.94
2023-04-18T15:20:09.930Z,26.87
2023-04-18T15:22:38.076Z,26.64
2023-04-18T15:25:08.625Z,26.48
2023-04-18T15:27:39.619Z,26.22
2023-04-18T15:30:11.105Z,26.37
2023-04-18T15:32:40.297Z,26.33
2023-04-18T15:35:09.343Z,26.52
2023-04-18T15:37:37.954Z,26.60
2023-04-18T15:40:11.242Z,26.86
2023-04-18T15:42:59.924Z,27.03
2023-04-18T15:45:28.060Z,27.09
2023-04-18T15:47:56.077Z,27.21
2023-04-18T15:50:24.639Z,27.25
2023-04-18T15:52:52.979Z,27.51
2023-04-18T15:55:22.424Z,27.44
2023-04-18T15:57:50.399Z,26.77
2023-04-18T16:00:19.829Z,26.21
2023-04-18T16:02:47.969Z,25.79
2023-04-18T16:05:16.145Z,25.79
2023-04-18T16:07:44.454Z,25.83
2023-04-18T16:10:12.952Z,26.05
2023-04-18T16:12:42.460Z,26.16
2023-04-18T16:15:11.225Z,25.83
2023-04-18T16:17:39.216Z,25.44
2023-04-18T16:20:09.296Z,25.10
2023-04-18T16:22:37.431Z,24.75
2023-04-18T16:25:06.282Z,24.26
2023-04-18T16:27:34.267Z,23.70
2023-04-18T16:30:05.765Z,23.21
2023-04-18T16:32:34.060Z,22.62
2023-04-18T16:35:02.116Z,22.19
2023-04-18T16:37:30.149Z,21.90
2023-04-18T16:39:58.160Z,21.69
2023-04-18T16:42:26.263Z,21.56
2023-04-18T16:44:57.337Z,21.53
2023-04-18T16:47:26.872Z,21.40
2023-04-18T16:49:55.784Z,21.34
2023-04-18T16:52:23.697Z,21.23
2023-04-18T16:54:52.743Z,21.09
2023-04-18T16:57:20.804Z,21.03
2023-04-18T16:59:48.720Z,20.88
2023-04-18T17:02:18.181Z,20.75
2023-04-18T17:04:47.562Z,20.65
2023-04-18T17:07:15.720Z,20.52
2023-04-18T17:09:43.604Z,20.42
2023-04-18T17:12:11.607Z,20.40
2023-04-18T17:14:39.607Z,20.20
2023-04-18T17:17:07.559Z,20.29
2023-04-18T17:19:35.472Z,20.22
2023-04-18T17:22:04.811Z,20.17
2023-04-18T17:24:32.695Z,20.19
2023-04-18T17:27:01.262Z,20.12
2023-04-18T17:29:29.192Z,20.11
2023-04-18T17:31:57.091Z,20.09
2023-04-18T17:34:25.037Z,20.04
2023-04-18T17:36:52.909Z,19.93
2023-04-18T17:39:25.327Z,19.86
2023-04-18T17:41:53.344Z,19.79
2023-04-18T17:44:21.382Z,19.78
2023-04-18T17:46:50.569Z,19.75
2023-04-18T17:49:18.644Z,19.69
2023-04-18T17:51:46.612Z,19.68
2023-04-18T17:54:14.668Z,19.61
2023-04-18T17:56:44.196Z,19.58
2023-04-18T17:59:12.238Z,19.55
2023-04-18T18:01:41.235Z,19.47
2023-04-18T18:04:09.260Z,19.46
2023-04-18T18:06:37.305Z,19.45
2023-04-18T18:09:05.294Z,19.48
2023-04-18T18:11:33.395Z,19.47
2023-04-18T18:14:02.695Z,19.48
2023-04-18T18:16:30.854Z,19.42
2023-04-18T18:18:59.730Z,19.32
2023-04-18T18:21:28.784Z,19.23
2023-04-18T18:23:56.795Z,19.14
2023-04-18T18:26:26.441Z,18.97
2023-04-18T18:28:54.551Z,19.04
2023-04-18T18:31:25.000Z,18.98
2023-04-18T18:33:53.006Z,18.93
2023-04-18T18:36:21.142Z,18.84
2023-04-18T18:38:49.048Z,18.77
2023-04-18T18:41:17.068Z,18.71
2023-04-18T18:43:45.020Z,18.77
2023-04-18T18:46:13.091Z,18.73
2023-04-18T18:48:44.995Z,18.61
2023-04-18T18:51:22.656Z,18.68
2023-04-18T18:53:54.706Z,18.10
2023-04-18T18:56:26.294Z,18.55
2023-04-18T18:58:57.584Z,18.42
2023-04-18T19:01:30.852Z,18.21
2023-04-18T19:04:04.631Z,18.40
2023-04-18T19:06:39.082Z,18.39
2023-04-18T19:09:12.464Z,18.17
2023-04-18T19:11:42.028Z,18.22
2023-04-18T19:14:13.350Z,18.18
2023-04-18T19:17:01.859Z,18.13
2023-04-18T19:19:42.360Z,18.07
2023-04-18T19:22:17.543Z,17.93
2023-04-18T19:24:53.653Z,17.84
2023-04-18T19:27:27.324Z,17.88
2023-04-18T19:29:58.398Z,17.89
2023-04-18T19:32:33.956Z,17.69
2023-04-18T19:35:10.980Z,17.77
2023-04-18T19:37:43.529Z,17.58
2023-04-18T19:40:18.514Z,17.62
2023-04-18T19:42:54.719Z,17.54
2023-04-18T19:45:29.598Z,17.53
2023-04-18T19:48:05.217Z,17.53
2023-04-18T19:50:42.267Z,17.38
2023-04-18T19:53:22.444Z,17.44
2023-04-18T19:55:51.818Z,17.43
2023-04-18T19:58:38.822Z,17.43
2023-04-18T20:01:10.088Z,17.36
2023-04-18T20:03:41.421Z,17.35
2023-04-18T20:06:27.983Z,17.32
2023-04-18T20:09:04.826Z,17.29
2023-04-18T20:11:39.585Z,17.28
2023-04-18T20:14:11.077Z,17.21
2023-04-18T20:17:05.483Z,17.19
2023-04-18T20:19:40.396Z,17.21
2023-04-18T20:29:30.927Z,17.12
2023-04-18T20:32:06.649Z,16.92
2023-04-18T20:34:37.912Z,17.09
2023-04-18T20:37:12.171Z,17.07
2023-04-18T20:39:48.978Z,16.90
2023-04-18T20:42:20.375Z,17.03
2023-04-18T20:44:51.004Z,17.02
2023-04-18T20:47:30.770Z,16.89
2023-04-18T20:50:09.404Z,16.97
2023-04-18T20:52:43.565Z,17.00
2023-04-18T20:55:23.900Z,17.00
2023-04-18T20:58:07.121Z,16.97
2023-04-18T21:00:48.887Z,16.93
2023-04-18T21:03:34.242Z,16.90
2023-04-18T21:06:14.112Z,16.83
2023-04-18T21:08:43.295Z,16.42
2023-04-18T21:11:22.110Z,16.81
2023-04-18T21:13:54.069Z,16.79
2023-04-18T21:16:24.193Z,16.78
2023-04-18T21:18:52.638Z,16.74
2023-04-18T21:21:24.313Z,16.69
2023-04-18T21:23:52.925Z,16.76
2023-04-18T21:26:22.215Z,16.75
2023-04-18T21:28:57.888Z,16.71
2023-04-18T21:31:27.042Z,16.68
2023-04-18T21:33:55.941Z,16.70
2023-04-18T21:36:25.170Z,16.71
2023-04-18T21:38:54.104Z,16.70
2023-04-18T21:41:24.331Z,16.69
2023-04-18T21:43:52.954Z,16.67
2023-04-18T21:46:21.820Z,16.69
2023-04-18T21:48:50.656Z,16.67
2023-04-18T21:51:19.347Z,16.71
2023-04-18T21:53:48.180Z,16.62
2023-04-18T21:56:17.480Z,16.65
2023-04-18T21:58:47.872Z,16.61
2023-04-18T22:01:16.551Z,16.59
2023-04-18T22:03:45.308Z,16.52
2023-04-18T22:06:14.097Z,16.44
2023-04-18T22:08:43.897Z,16.50
2023-04-18T22:11:13.867Z,16.45
2023-04-18T22:13:45.115Z,16.41
2023-04-18T22:16:15.383Z,16.42
2023-04-18T22:18:43.974Z,16.35
2023-04-18T22:21:12.529Z,16.27
2023-04-18T22:23:40.969Z,16.37
2023-04-18T22:26:09.246Z,16.33
2023-04-18T22:28:37.881Z,16.25
2023-04-18T22:31:07.043Z,16.10
2023-04-18T22:33:37.263Z,16.05
2023-04-18T22:36:06.598Z,15.98
2023-04-18T22:38:35.303Z,15.74
2023-04-18T22:41:03.991Z,15.78
2023-04-18T22:43:32.583Z,15.76
2023-04-18T22:46:01.391Z,15.69
2023-04-18T22:48:30.175Z,15.62
2023-04-18T22:51:01.995Z,15.45
2023-04-18T22:53:30.789Z,15.46
2023-04-18T22:55:59.325Z,15.38
2023-04-18T22:58:28.114Z,15.36
2023-04-18T23:00:56.743Z,15.20
2023-04-18T23:03:25.432Z,15.13
2023-04-18T23:05:54.243Z,15.07
2023-04-18T23:08:24.254Z,15.00
2023-04-18T23:10:52.234Z,14.94
2023-04-18T23:13:20.907Z,14.88
2023-04-18T23:15:49.586Z,14.86
2023-04-18T23:18:18.119Z,14.84
2023-04-18T23:20:48.416Z,14.82
2023-04-18T23:23:17.043Z,14.88
2023-04-18T23:25:47.124Z,14.96
2023-04-18T23:28:17.271Z,15.02
2023-04-18T23:30:45.523Z,15.05
2023-04-18T23:41:47.052Z,15.12
2023-04-18T23:44:17.108Z,15.11
2023-04-18T23:46:45.666Z,15.15
2023-04-18T23:49:14.291Z,15.06
2023-04-18T23:51:42.814Z,15.04
2023-04-18T23:54:11.394Z,15.04
2023-04-18T23:56:40.104Z,14.99
2023-04-18T23:59:08.765Z,14.92
